Bomar Pluto — 9HRH9 — position and weather

sailwx.info

Track history (hours):
 
Tides and Currents Weather Stations Pressure Air Temp Water Temp Dewpoint Dewpoint Depression Visibility Wind Speed Wind Dir Waves Ship Positions

Bomar Pluto

Last reported at 2018-May-20 16:25 UTC. Time now 2018-May-21 18:58 UTC.
Position N 36°36' W 007°50'.

Length 108 m; draft 5.8 m.

Type: Ship (hazmat cat C). MMSI: 249403000.

Date/timePositionNaut miles runAvg speedWind from/ knotsBaromVisibWave heightAir tempDewpointWater temp
2018-May-20 16:25N 36°36' W 007°50'512.4
2018-May-20 16:00N 36°35' W 007°56'912.3
2018-May-20 15:15N 36°34' W 008°07'712.4
2018-May-20 14:40N 36°32' W 008°16'212.6
2018-May-20 14:29N 36°32' W 008°19'612.4
2018-May-20 14:01N 36°31' W 008°26'612.3
2018-May-20 13:31N 36°30' W 008°34'1012.4
2018-May-20 12:42N 36°28' W 008°46'212.3
2018-May-20 12:30N 36°28' W 008°49'612.2
2018-May-20 12:00N 36°27' W 008°57'612.2
2018-May-20 11:31N 36°26' W 009°04'7110.9
2018-May-20 05:00N 37°26' W 009°51'611.8
2018-May-20 04:30N 37°32' W 009°53'611.7
2018-May-20 03:57N 37°38' W 009°55'511.6
2018-May-20 03:29N 37°44' W 009°56'611.7
2018-May-20 03:01N 37°49' W 009°58'611.6
2018-May-20 02:31N 37°55' W 009°59'611.7
2018-May-20 02:00N 38°01' W 010°01'611.9
2018-May-20 01:31N 38°06' W 010°03'612.2
2018-May-20 01:01N 38°12' W 010°05'612.0
2018-May-20 00:30N 38°18' W 010°06'612.4
2018-May-20 00:00N 38°24' W 010°08'612.4
2018-May-19 23:31N 38°30' W 010°10'612.1
2018-May-19 23:00N 38°36' W 010°12'612.2
2018-May-19 22:30N 38°42' W 010°13'812.8
2018-May-19 21:53N 38°50' W 010°13'513.5
2018-May-19 21:30N 38°55' W 010°13'713.2
2018-May-19 21:00N 39°02' W 010°13'613.0
2018-May-19 20:31N 39°08' W 010°13'612.7
2018-May-19 20:00N 39°15' W 010°13'613.0
2018-May-19 19:31N 39°21' W 010°13'612.4
2018-May-19 19:00N 39°27' W 010°13'612.3
2018-May-19 18:30N 39°33' W 010°13'712.6
2018-May-19 17:59N 39°40' W 010°13'812.6
2018-May-19 17:22N 39°48' W 010°13'412.5
2018-May-19 17:01N 39°52' W 010°13'712.9
2018-May-19 16:30N 39°59' W 010°13'49411.9
2018-May-17 22:57N 47°49' W 006°42'3013.5
2018-May-17 20:43N 48°15' W 006°20'313.1
2018-May-17 20:30N 48°18' W 006°19'612.7
2018-May-17 20:01N 48°23' W 006°14'612.4
2018-May-17 19:31N 48°29' W 006°10'611.8
2018-May-17 19:01N 48°34' W 006°06'611.3
2018-May-17 18:31N 48°39' W 006°02'510.7
2018-May-17 18:01N 48°44' W 005°58'510.4
2018-May-17 17:31N 48°48' W 005°54'510.2
2018-May-17 17:00N 48°53' W 005°50'5 9.6
2018-May-17 16:31N 48°56' W 005°45'510.2
2018-May-17 16:00N 48°59' W 005°38'510.0
2018-May-17 15:31N 49°01' W 005°32'510.3
2018-May-17 14:59N 49°04' W 005°25'510.7
2018-May-17 14:30N 49°06' W 005°18'611.3
2018-May-17 14:01N 49°09' W 005°11'612.3
2018-May-17 13:31N 49°12' W 005°02'713.5
2018-May-17 13:00N 49°16' W 004°53'713.8
2018-May-17 12:30N 49°19' W 004°44'714.0
2018-May-17 12:00N 49°23' W 004°35'714.0
2018-May-17 11:31N 49°26' W 004°26'713.8
2018-May-17 11:00N 49°30' W 004°17'713.5
2018-May-17 10:29N 49°34' W 004°08'1012.7
2018-May-17 09:45N 49°38' W 003°55'312.1
2018-May-17 09:29N 49°40' W 003°51'611.6
2018-May-17 09:00N 49°43' W 003°43'611.2
2018-May-17 08:30N 49°45' W 003°36'610.7
2018-May-17 07:55N 49°49' W 003°27'410.4
2018-May-17 07:30N 49°51' W 003°21'710.2
2018-May-17 06:51N 49°54' W 003°13'410.7
2018-May-17 06:30N 49°56' W 003°08'510.6
2018-May-17 06:00N 49°59' W 003°01'611.0
2018-May-17 05:30N 50°01' W 002°53'611.9
2018-May-17 05:00N 50°03' W 002°44'712.9
2018-May-17 04:27N 50°04' W 002°33'914.1
2018-May-17 03:49N 50°07' W 002°20'815.1
2018-May-17 03:17N 50°09' W 002°08'515.7
2018-May-17 02:58N 50°10' W 002°00'815.8
2018-May-17 02:28N 50°12' W 001°48'715.6
2018-May-17 02:00N 50°14' W 001°38'815.1
2018-May-17 01:30N 50°17' W 001°26'714.4
2018-May-17 01:00N 50°19' W 001°15'713.6
2018-May-17 00:30N 50°20' W 001°05'612.4
2018-May-17 00:00N 50°22' W 000°56'611.1
2018-May-16 23:30N 50°23' W 000°47'5 9.9
2018-May-16 23:00N 50°25' W 000°40'6 9.2
2018-May-16 22:19N 50°26' W 000°30'3 9.0
2018-May-16 21:58N 50°27' W 000°25'4 9.2
2018-May-16 21:29N 50°28' W 000°19'5 9.4
2018-May-16 21:00N 50°30' W 000°12'5 9.8
2018-May-16 20:30N 50°31' W 000°05'510.2
2018-May-16 20:00N 50°32' E 000°03'510.8
2018-May-16 19:30N 50°34' E 000°11'611.6
2018-May-16 19:00N 50°35' E 000°20'612.2
2018-May-16 18:30N 50°37' E 000°29'612.6
2018-May-16 18:00N 50°39' E 000°38'713.0
2018-May-16 17:30N 50°43' E 000°47'713.2
2018-May-16 17:00N 50°47' E 000°55'712.8
2018-May-16 16:29N 50°51' E 001°04'1311.9
2018-May-16 15:23N 50°60' E 001°19'410.9
2018-May-16 15:00N 51°03' E 001°24'510.1
2018-May-16 14:30N 51°06' E 001°30'4 8.9
2018-May-16 14:00N 51°09' E 001°36'4 8.5
2018-May-16 13:30N 51°11' E 001°41'4 8.5
2018-May-16 13:00N 51°14' E 001°46'5 9.3
2018-May-16 12:30N 51°18' E 001°50'5 9.7
2018-May-16 12:00N 51°22' E 001°54'5 9.9
2018-May-16 11:30N 51°26' E 002°00'5 9.3
2018-May-16 11:00N 51°24' E 002°07'5 9.2
2018-May-16 10:30N 51°22' E 002°14'5 9.7
2018-May-16 10:00N 51°21' E 002°21'612.0
2018-May-16 09:30N 51°23' E 002°31'611.8
2018-May-16 09:00N 51°23' E 002°40'510.2
2018-May-16 08:30N 51°22' E 002°48'713.1
2018-May-16 07:57N 51°24' E 002°60'612.6
2018-May-16 07:28N 51°24' E 003°09'713.5
2018-May-16 06:58N 51°24' E 003°20'613.8
2018-May-16 06:30N 51°25' E 003°30'612.0
2018-May-16 06:01N 51°25' E 003°40'714.0
2018-May-16 05:31N 51°21' E 003°49'1 2.2
2018-May-16 05:00N 51°20' E 003°49'3 5.3
2018-May-16 04:30N 51°17' E 003°50'1 1.1
2018-May-16 03:55N 51°17' E 003°51'0 0.0
2018-May-16 03:28N 51°17' E 003°51'0 0.0
2018-May-16 02:58N 51°17' E 003°51'0 0.0
2018-May-16 02:28N 51°17' E 003°51'0 0.0
2018-May-16 01:55N 51°17' E 003°51'0 0.0
2018-May-16 01:28N 51°17' E 003°51'0 0.0
2018-May-16 00:52N 51°17' E 003°51'0 0.0
2018-May-16 00:28N 51°17' E 003°51'0 0.0
2018-May-15 23:58N 51°17' E 003°51'0 0.0
2018-May-15 23:28N 51°17' E 003°51'0 0.0
2018-May-15 22:58N 51°17' E 003°51'0 0.0
2018-May-15 22:28N 51°17' E 003°51'0 0.0
2018-May-15 21:55N 51°17' E 003°51'0 0.0
2018-May-15 21:25N 51°17' E 003°51'0 0.0
2018-May-15 20:49N 51°17' E 003°51'0 0.0
2018-May-15 20:28N 51°17' E 003°51'0 0.0
2018-May-15 19:58N 51°17' E 003°51'0 0.0
2018-May-15 19:28N 51°17' E 003°51'0 0.0
2018-May-15 18:46N 51°17' E 003°51'0 0.0
2018-May-15 18:22N 51°17' E 003°51'0 0.0
2018-May-15 17:58N 51°17' E 003°51'0 0.0
2018-May-15 17:22N 51°17' E 003°51'0 0.0
2018-May-15 16:55N 51°17' E 003°51'0 0.0
2018-May-15 14:25N 51°17' E 003°51'0 0.0
2018-May-15 13:28N 51°17' E 003°51'0 0.0
2018-May-15 11:31N 51°17' E 003°51'0 0.1
2018-May-15 11:30N 51°17' E 003°51'0 1.0
2018-May-15 11:00N 51°17' E 003°50'3 5.6
2018-May-15 10:30N 51°20' E 003°49'0 0.1
2018-May-15 10:00N 51°20' E 003°49'1 1.1
2018-May-15 09:30N 51°20' E 003°49'3 6.2
2018-May-15 09:00N 51°22' E 003°45'510.3
2018-May-15 08:30N 51°25' E 003°38'5 8.2
2018-May-15 07:56N 51°25' E 003°31'5 9.9
2018-May-15 07:29N 51°24' E 003°23'510.1
2018-May-15 06:59N 51°24' E 003°15'4 9.0
2018-May-15 06:30N 51°24' E 003°08'5 9.1
2018-May-15 06:00N 51°24' E 003°01'5 9.9
2018-May-15 05:29N 51°22' E 002°54'510.4
2018-May-15 04:59N 51°22' E 002°45'4 9.2
2018-May-15 04:30N 51°22' E 002°38'610.9
2018-May-15 04:00N 51°22' E 002°29'510.4
2018-May-15 03:29N 51°19' E 002°21'611.7
2018-May-15 03:00N 51°16' E 002°14'612.2
2018-May-15 02:30N 51°13' E 002°05'612.4
2018-May-15 02:00N 51°10' E 001°57'612.7
2018-May-15 01:30N 51°07' E 001°48'713.3
2018-May-15 01:00N 51°02' E 001°41'714.3
2018-May-15 00:30N 50°57' E 001°33'6412.9
2018-May-14 19:35N 50°19' E 000°12'114.4
2018-May-14 19:31N 50°19' E 000°10'714.3
2018-May-14 19:00N 50°17' W 000°00'713.8
2018-May-14 18:30N 50°16' W 000°11'713.8
2018-May-14 18:00N 50°14' W 000°21'713.7
2018-May-14 17:30N 50°12' W 000°32'713.3
2018-May-14 17:00N 50°11' W 000°42'612.6
2018-May-14 16:31N 50°09' W 000°51'612.0
2018-May-14 16:01N 50°08' W 001°00'611.2
2018-May-14 15:30N 50°06' W 001°09'510.6
2018-May-14 15:00N 50°05' W 001°17'5 9.8
2018-May-14 14:31N 50°03' W 001°24'5 9.1
2018-May-14 14:01N 50°02' W 001°31'4 8.7
2018-May-14 13:30N 50°01' W 001°37'4 8.4
2018-May-14 13:00N 50°00' W 001°44'4 8.4
2018-May-14 12:30N 49°59' W 001°50'4 8.6
2018-May-14 12:00N 49°58' W 001°56'5 9.0
2018-May-14 11:30N 49°57' W 002°03'5 9.9
2018-May-14 11:00N 49°55' W 002°11'610.9
2018-May-14 10:30N 49°54' W 002°19'611.6
2018-May-14 10:00N 49°52' W 002°27'612.1
2018-May-14 09:29N 49°51' W 002°37'612.5
2018-May-14 09:00N 49°49' W 002°46'612.6
2018-May-14 08:30N 49°47' W 002°55'713.1
2018-May-14 08:00N 49°44' W 003°04'713.5
2018-May-14 07:30N 49°40' W 003°13'1313.4
2018-May-14 06:30N 49°34' W 003°31'1613.2
2018-May-14 05:17N 49°25' W 003°52'2013.7
2018-May-14 03:50N 49°15' W 004°18'3113.6
2018-May-14 01:34N 48°60' W 004°59'813.2
2018-May-14 00:57N 48°56' W 005°10'712.9
2018-May-14 00:25N 48°52' W 005°19'512.1
2018-May-14 00:00N 48°50' W 005°25'611.4
2018-May-13 23:30N 48°47' W 005°33'610.5
2018-May-13 22:56N 48°42' W 005°39'4 9.9
2018-May-13 22:31N 48°39' W 005°42'3210.5
2018-May-13 19:28N 48°08' W 005°29'222 9.3
2018-May-12 19:42N 45°37' W 001°30'2 9.2
2018-May-12 19:27N 45°37' W 001°27'4 8.8
2018-May-12 18:59N 45°37' W 001°21'812.8
2018-May-12 18:23N 45°39' W 001°11'513.8
2018-May-12 18:00N 45°37' W 001°05'713.4
2018-May-12 17:30N 45°31' W 000°59'714.4
2018-May-12 17:00N 45°26' W 000°53'713.8
2018-May-12 16:31N 45°20' W 000°47'14 0.9
2018-May-12 00:32N 45°07' W 000°40'0 0.0
2018-May-12 00:23N 45°07' W 000°40'0 0.0
2018-May-11 23:59N 45°07' W 000°40'0 0.0
2018-May-11 23:29N 45°07' W 000°40'0 0.0
2018-May-11 22:59N 45°07' W 000°40'0 0.0
2018-May-11 21:56N 45°07' W 000°40'0 0.0
2018-May-11 21:26N 45°07' W 000°40'0 0.0
2018-May-11 19:20N 45°07' W 000°40'0 0.0
2018-May-11 18:56N 45°07' W 000°40'8 1.3
2018-May-11 12:53N 45°14' W 000°44'613.4
2018-May-11 12:27N 45°20' W 000°47'613.2
2018-May-11 12:00N 45°25' W 000°51'713.4
2018-May-11 11:30N 45°30' W 000°57'612.7
2018-May-11 11:00N 45°35' W 001°03'5 9.6
2018-May-11 10:30N 45°38' W 001°08'5 9.8
2018-May-11 10:00N 45°39' W 001°14'510.8
2018-May-11 09:30N 45°37' W 001°21'4 7.1
2018-May-11 08:57N 45°35' W 001°26'0 0.0
2018-May-11 08:27N 45°35' W 001°26'0 0.0
2018-May-11 07:00N 45°35' W 001°26'0 0.0
2018-May-11 06:30N 45°35' W 001°26'0 0.0
2018-May-11 06:00N 45°35' W 001°26'0 0.1
2018-May-11 05:30N 45°35' W 001°26'0 0.1
2018-May-11 04:57N 45°35' W 001°26'0 0.0
2018-May-11 04:30N 45°35' W 001°26'0 0.0
2018-May-11 03:57N 45°35' W 001°26'0 0.1
2018-May-11 03:30N 45°35' W 001°26'0 0.1
2018-May-11 03:00N 45°35' W 001°26'0 0.1
2018-May-11 02:27N 45°35' W 001°26'0 0.0
2018-May-11 02:00N 45°35' W 001°26'0 0.0
2018-May-11 01:30N 45°35' W 001°26'0 0.0
2018-May-11 01:00N 45°35' W 001°26'0 0.0
2018-May-11 00:30N 45°35' W 001°26'0 0.0
2018-May-11 00:00N 45°35' W 001°26'0 0.0
2018-May-10 22:57N 45°35' W 001°26'0 0.0
2018-May-10 22:30N 45°35' W 001°26'0 0.1
2018-May-10 22:00N 45°35' W 001°26'2 4.8
2018-May-10 21:30N 45°37' W 001°28'  
Track history (hours):
 
Tides and Currents Weather Stations Pressure Air Temp Water Temp Dewpoint Dewpoint Depression Visibility Wind Speed Wind Dir Waves Ship Positions

Bomar Pluto

Last reported at 2018-May-20 16:25 UTC. Time now 2018-May-21 18:59 UTC.
Position N 36°36' W 007°50'.

Length 108 m; draft 5.8 m.

Type: Ship (hazmat cat C). MMSI: 249403000.

Date/timePositionNaut miles runAvg speedWind from/ knotsBaromVisibWave heightAir tempDewpointWater temp
2018-May-20 16:25N 36°36' W 007°50'512.4
2018-May-20 16:00N 36°35' W 007°56'912.3
2018-May-20 15:15N 36°34' W 008°07'712.4
2018-May-20 14:40N 36°32' W 008°16'212.6
2018-May-20 14:29N 36°32' W 008°19'612.4
2018-May-20 14:01N 36°31' W 008°26'612.3
2018-May-20 13:31N 36°30' W 008°34'1012.4
2018-May-20 12:42N 36°28' W 008°46'212.3
2018-May-20 12:30N 36°28' W 008°49'612.2
2018-May-20 12:00N 36°27' W 008°57'612.2
2018-May-20 11:31N 36°26' W 009°04'7110.9
2018-May-20 05:00N 37°26' W 009°51'611.8
2018-May-20 04:30N 37°32' W 009°53'611.7
2018-May-20 03:57N 37°38' W 009°55'511.6
2018-May-20 03:29N 37°44' W 009°56'611.7
2018-May-20 03:01N 37°49' W 009°58'611.6
2018-May-20 02:31N 37°55' W 009°59'611.7
2018-May-20 02:00N 38°01' W 010°01'611.9
2018-May-20 01:31N 38°06' W 010°03'612.2
2018-May-20 01:01N 38°12' W 010°05'612.0
2018-May-20 00:30N 38°18' W 010°06'612.4
2018-May-20 00:00N 38°24' W 010°08'612.4
2018-May-19 23:31N 38°30' W 010°10'612.1
2018-May-19 23:00N 38°36' W 010°12'612.2
2018-May-19 22:30N 38°42' W 010°13'812.8
2018-May-19 21:53N 38°50' W 010°13'513.5
2018-May-19 21:30N 38°55' W 010°13'713.2
2018-May-19 21:00N 39°02' W 010°13'613.0
2018-May-19 20:31N 39°08' W 010°13'612.7
2018-May-19 20:00N 39°15' W 010°13'613.0
2018-May-19 19:31N 39°21' W 010°13'612.4
2018-May-19 19:00N 39°27' W 010°13'612.3
2018-May-19 18:30N 39°33' W 010°13'712.6
2018-May-19 17:59N 39°40' W 010°13'812.6
2018-May-19 17:22N 39°48' W 010°13'412.5
2018-May-19 17:01N 39°52' W 010°13'712.9
2018-May-19 16:30N 39°59' W 010°13'49411.9
2018-May-17 22:57N 47°49' W 006°42'3013.5
2018-May-17 20:43N 48°15' W 006°20'313.1
2018-May-17 20:30N 48°18' W 006°19'612.7
2018-May-17 20:01N 48°23' W 006°14'612.4
2018-May-17 19:31N 48°29' W 006°10'611.8
2018-May-17 19:01N 48°34' W 006°06'611.3
2018-May-17 18:31N 48°39' W 006°02'510.7
2018-May-17 18:01N 48°44' W 005°58'510.4
2018-May-17 17:31N 48°48' W 005°54'510.2
2018-May-17 17:00N 48°53' W 005°50'5 9.6
2018-May-17 16:31N 48°56' W 005°45'510.2
2018-May-17 16:00N 48°59' W 005°38'510.0
2018-May-17 15:31N 49°01' W 005°32'510.3
2018-May-17 14:59N 49°04' W 005°25'510.7
2018-May-17 14:30N 49°06' W 005°18'611.3
2018-May-17 14:01N 49°09' W 005°11'612.3
2018-May-17 13:31N 49°12' W 005°02'713.5
2018-May-17 13:00N 49°16' W 004°53'713.8
2018-May-17 12:30N 49°19' W 004°44'714.0
2018-May-17 12:00N 49°23' W 004°35'714.0
2018-May-17 11:31N 49°26' W 004°26'713.8
2018-May-17 11:00N 49°30' W 004°17'713.5
2018-May-17 10:29N 49°34' W 004°08'1012.7
2018-May-17 09:45N 49°38' W 003°55'312.1
2018-May-17 09:29N 49°40' W 003°51'611.6
2018-May-17 09:00N 49°43' W 003°43'611.2
2018-May-17 08:30N 49°45' W 003°36'610.7
2018-May-17 07:55N 49°49' W 003°27'410.4
2018-May-17 07:30N 49°51' W 003°21'710.2
2018-May-17 06:51N 49°54' W 003°13'410.7
2018-May-17 06:30N 49°56' W 003°08'510.6
2018-May-17 06:00N 49°59' W 003°01'611.0
2018-May-17 05:30N 50°01' W 002°53'611.9
2018-May-17 05:00N 50°03' W 002°44'712.9
2018-May-17 04:27N 50°04' W 002°33'914.1
2018-May-17 03:49N 50°07' W 002°20'815.1
2018-May-17 03:17N 50°09' W 002°08'515.7
2018-May-17 02:58N 50°10' W 002°00'815.8
2018-May-17 02:28N 50°12' W 001°48'715.6
2018-May-17 02:00N 50°14' W 001°38'815.1
2018-May-17 01:30N 50°17' W 001°26'714.4
2018-May-17 01:00N 50°19' W 001°15'713.6
2018-May-17 00:30N 50°20' W 001°05'612.4
2018-May-17 00:00N 50°22' W 000°56'611.1
2018-May-16 23:30N 50°23' W 000°47'5 9.9
2018-May-16 23:00N 50°25' W 000°40'6 9.2
2018-May-16 22:19N 50°26' W 000°30'3 9.0
2018-May-16 21:58N 50°27' W 000°25'4 9.2
2018-May-16 21:29N 50°28' W 000°19'5 9.4
2018-May-16 21:00N 50°30' W 000°12'5 9.8
2018-May-16 20:30N 50°31' W 000°05'510.2
2018-May-16 20:00N 50°32' E 000°03'510.8
2018-May-16 19:30N 50°34' E 000°11'611.6
2018-May-16 19:00N 50°35' E 000°20'612.2
2018-May-16 18:30N 50°37' E 000°29'612.6
2018-May-16 18:00N 50°39' E 000°38'713.0
2018-May-16 17:30N 50°43' E 000°47'713.2
2018-May-16 17:00N 50°47' E 000°55'712.8
2018-May-16 16:29N 50°51' E 001°04'1311.9
2018-May-16 15:23N 50°60' E 001°19'410.9
2018-May-16 15:00N 51°03' E 001°24'510.1
2018-May-16 14:30N 51°06' E 001°30'4 8.9
2018-May-16 14:00N 51°09' E 001°36'4 8.5
2018-May-16 13:30N 51°11' E 001°41'4 8.5
2018-May-16 13:00N 51°14' E 001°46'5 9.3
2018-May-16 12:30N 51°18' E 001°50'5 9.7
2018-May-16 12:00N 51°22' E 001°54'5 9.9
2018-May-16 11:30N 51°26' E 002°00'5 9.3
2018-May-16 11:00N 51°24' E 002°07'5 9.2
2018-May-16 10:30N 51°22' E 002°14'5 9.7
2018-May-16 10:00N 51°21' E 002°21'612.0
2018-May-16 09:30N 51°23' E 002°31'611.8
2018-May-16 09:00N 51°23' E 002°40'510.2
2018-May-16 08:30N 51°22' E 002°48'713.1
2018-May-16 07:57N 51°24' E 002°60'612.6
2018-May-16 07:28N 51°24' E 003°09'713.5
2018-May-16 06:58N 51°24' E 003°20'613.8
2018-May-16 06:30N 51°25' E 003°30'612.0
2018-May-16 06:01N 51°25' E 003°40'714.0
2018-May-16 05:31N 51°21' E 003°49'1 2.2
2018-May-16 05:00N 51°20' E 003°49'3 5.3
2018-May-16 04:30N 51°17' E 003°50'1 1.1
2018-May-16 03:55N 51°17' E 003°51'0 0.0
2018-May-16 03:28N 51°17' E 003°51'0 0.0
2018-May-16 02:58N 51°17' E 003°51'0 0.0
2018-May-16 02:28N 51°17' E 003°51'0 0.0
2018-May-16 01:55N 51°17' E 003°51'0 0.0
2018-May-16 01:28N 51°17' E 003°51'0 0.0
2018-May-16 00:52N 51°17' E 003°51'0 0.0
2018-May-16 00:28N 51°17' E 003°51'0 0.0
2018-May-15 23:58N 51°17' E 003°51'0 0.0
2018-May-15 23:28N 51°17' E 003°51'0 0.0
2018-May-15 22:58N 51°17' E 003°51'0 0.0
2018-May-15 22:28N 51°17' E 003°51'0 0.0
2018-May-15 21:55N 51°17' E 003°51'0 0.0
2018-May-15 21:25N 51°17' E 003°51'0 0.0
2018-May-15 20:49N 51°17' E 003°51'0 0.0
2018-May-15 20:28N 51°17' E 003°51'0 0.0
2018-May-15 19:58N 51°17' E 003°51'0 0.0
2018-May-15 19:28N 51°17' E 003°51'0 0.0
2018-May-15 18:46N 51°17' E 003°51'0 0.0
2018-May-15 18:22N 51°17' E 003°51'0 0.0
2018-May-15 17:58N 51°17' E 003°51'0 0.0
2018-May-15 17:22N 51°17' E 003°51'0 0.0
2018-May-15 16:55N 51°17' E 003°51'0 0.0
2018-May-15 14:25N 51°17' E 003°51'0 0.0
2018-May-15 13:28N 51°17' E 003°51'0 0.0
2018-May-15 11:31N 51°17' E 003°51'0 0.1
2018-May-15 11:30N 51°17' E 003°51'0 1.0
2018-May-15 11:00N 51°17' E 003°50'3 5.6
2018-May-15 10:30N 51°20' E 003°49'0 0.1
2018-May-15 10:00N 51°20' E 003°49'1 1.1
2018-May-15 09:30N 51°20' E 003°49'3 6.2
2018-May-15 09:00N 51°22' E 003°45'510.3
2018-May-15 08:30N 51°25' E 003°38'5 8.2
2018-May-15 07:56N 51°25' E 003°31'5 9.9
2018-May-15 07:29N 51°24' E 003°23'510.1
2018-May-15 06:59N 51°24' E 003°15'4 9.0
2018-May-15 06:30N 51°24' E 003°08'5 9.1
2018-May-15 06:00N 51°24' E 003°01'5 9.9
2018-May-15 05:29N 51°22' E 002°54'510.4
2018-May-15 04:59N 51°22' E 002°45'4 9.2
2018-May-15 04:30N 51°22' E 002°38'610.9
2018-May-15 04:00N 51°22' E 002°29'510.4
2018-May-15 03:29N 51°19' E 002°21'611.7
2018-May-15 03:00N 51°16' E 002°14'612.2
2018-May-15 02:30N 51°13' E 002°05'612.4
2018-May-15 02:00N 51°10' E 001°57'612.7
2018-May-15 01:30N 51°07' E 001°48'713.3
2018-May-15 01:00N 51°02' E 001°41'714.3
2018-May-15 00:30N 50°57' E 001°33'6412.9
2018-May-14 19:35N 50°19' E 000°12'114.4
2018-May-14 19:31N 50°19' E 000°10'714.3
2018-May-14 19:00N 50°17' W 000°00'713.8
2018-May-14 18:30N 50°16' W 000°11'713.8
2018-May-14 18:00N 50°14' W 000°21'713.7
2018-May-14 17:30N 50°12' W 000°32'713.3
2018-May-14 17:00N 50°11' W 000°42'612.6
2018-May-14 16:31N 50°09' W 000°51'612.0
2018-May-14 16:01N 50°08' W 001°00'611.2
2018-May-14 15:30N 50°06' W 001°09'510.6
2018-May-14 15:00N 50°05' W 001°17'5 9.8
2018-May-14 14:31N 50°03' W 001°24'5 9.1
2018-May-14 14:01N 50°02' W 001°31'4 8.7
2018-May-14 13:30N 50°01' W 001°37'4 8.4
2018-May-14 13:00N 50°00' W 001°44'4 8.4
2018-May-14 12:30N 49°59' W 001°50'4 8.6
2018-May-14 12:00N 49°58' W 001°56'5 9.0
2018-May-14 11:30N 49°57' W 002°03'5 9.9
2018-May-14 11:00N 49°55' W 002°11'610.9
2018-May-14 10:30N 49°54' W 002°19'611.6
2018-May-14 10:00N 49°52' W 002°27'612.1
2018-May-14 09:29N 49°51' W 002°37'612.5
2018-May-14 09:00N 49°49' W 002°46'612.6
2018-May-14 08:30N 49°47' W 002°55'713.1
2018-May-14 08:00N 49°44' W 003°04'713.5
2018-May-14 07:30N 49°40' W 003°13'1313.4
2018-May-14 06:30N 49°34' W 003°31'1613.2
2018-May-14 05:17N 49°25' W 003°52'2013.7
2018-May-14 03:50N 49°15' W 004°18'3113.6
2018-May-14 01:34N 48°60' W 004°59'813.2
2018-May-14 00:57N 48°56' W 005°10'712.9
2018-May-14 00:25N 48°52' W 005°19'512.1
2018-May-14 00:00N 48°50' W 005°25'611.4
2018-May-13 23:30N 48°47' W 005°33'610.5
2018-May-13 22:56N 48°42' W 005°39'4 9.9
2018-May-13 22:31N 48°39' W 005°42'3210.5
2018-May-13 19:28N 48°08' W 005°29'222 9.3
2018-May-12 19:42N 45°37' W 001°30'2 9.2
2018-May-12 19:27N 45°37' W 001°27'4 8.8
2018-May-12 18:59N 45°37' W 001°21'812.8
2018-May-12 18:23N 45°39' W 001°11'513.8
2018-May-12 18:00N 45°37' W 001°05'713.4
2018-May-12 17:30N 45°31' W 000°59'714.4
2018-May-12 17:00N 45°26' W 000°53'713.8
2018-May-12 16:31N 45°20' W 000°47'14 0.9
2018-May-12 00:32N 45°07' W 000°40'0 0.0
2018-May-12 00:23N 45°07' W 000°40'0 0.0
2018-May-11 23:59N 45°07' W 000°40'0 0.0
2018-May-11 23:29N 45°07' W 000°40'0 0.0
2018-May-11 22:59N 45°07' W 000°40'0 0.0
2018-May-11 21:56N 45°07' W 000°40'0 0.0
2018-May-11 21:26N 45°07' W 000°40'0 0.0
2018-May-11 19:20N 45°07' W 000°40'0 0.0
2018-May-11 18:56N 45°07' W 000°40'8 1.3
2018-May-11 12:53N 45°14' W 000°44'613.4
2018-May-11 12:27N 45°20' W 000°47'613.2
2018-May-11 12:00N 45°25' W 000°51'713.4
2018-May-11 11:30N 45°30' W 000°57'612.7
2018-May-11 11:00N 45°35' W 001°03'5 9.6
2018-May-11 10:30N 45°38' W 001°08'5 9.8
2018-May-11 10:00N 45°39' W 001°14'510.8
2018-May-11 09:30N 45°37' W 001°21'4 7.1
2018-May-11 08:57N 45°35' W 001°26'0 0.0
2018-May-11 08:27N 45°35' W 001°26'0 0.0
2018-May-11 07:00N 45°35' W 001°26'0 0.0
2018-May-11 06:30N 45°35' W 001°26'0 0.0
2018-May-11 06:00N 45°35' W 001°26'0 0.1
2018-May-11 05:30N 45°35' W 001°26'0 0.1
2018-May-11 04:57N 45°35' W 001°26'0 0.0
2018-May-11 04:30N 45°35' W 001°26'0 0.0
2018-May-11 03:57N 45°35' W 001°26'0 0.1
2018-May-11 03:30N 45°35' W 001°26'0 0.1
2018-May-11 03:00N 45°35' W 001°26'0 0.1
2018-May-11 02:27N 45°35' W 001°26'0 0.0
2018-May-11 02:00N 45°35' W 001°26'0 0.0
2018-May-11 01:30N 45°35' W 001°26'0 0.0
2018-May-11 01:00N 45°35' W 001°26'0 0.0
2018-May-11 00:30N 45°35' W 001°26'0 0.0
2018-May-11 00:00N 45°35' W 001°26'0 0.0
2018-May-10 22:57N 45°35' W 001°26'0 0.0
2018-May-10 22:30N 45°35' W 001°26'0 0.1
2018-May-10 22:00N 45°35' W 001°26'2 4.8
2018-May-10 21:30N 45°37' W 001°28'  

Dump ship's entire track history